sensor_id;sensor_type;location;lat;lon;timestamp;P1;durP1;ratioP1;P2;durP2;ratioP2
52057;SDS011;38063;53.210;6.504;2022-11-13T00:01:58;32.22;;;20.30;;
52057;SDS011;38063;53.210;6.504;2022-11-13T00:04:23;31.65;;;20.52;;
52057;SDS011;38063;53.210;6.504;2022-11-13T00:06:50;30.00;;;19.65;;
52057;SDS011;38063;53.210;6.504;2022-11-13T00:09:16;29.90;;;19.58;;
52057;SDS011;38063;53.210;6.504;2022-11-13T00:11:41;32.97;;;20.50;;
52057;SDS011;38063;53.210;6.504;2022-11-13T00:14:07;32.47;;;19.77;;
52057;SDS011;38063;53.210;6.504;2022-11-13T00:16:33;32.58;;;20.25;;
52057;SDS011;38063;53.210;6.504;2022-11-13T00:18:58;31.73;;;20.05;;
52057;SDS011;38063;53.210;6.504;2022-11-13T00:21:24;32.15;;;21.83;;
52057;SDS011;38063;53.210;6.504;2022-11-13T00:23:51;33.70;;;21.10;;
52057;SDS011;38063;53.210;6.504;2022-11-13T00:26:25;37.15;;;22.10;;
52057;SDS011;38063;53.210;6.504;2022-11-13T00:28:56;40.17;;;22.77;;
52057;SDS011;38063;53.210;6.504;2022-11-13T00:31:24;38.03;;;22.70;;
52057;SDS011;38063;53.210;6.504;2022-11-13T00:33:50;38.88;;;23.00;;
52057;SDS011;38063;53.210;6.504;2022-11-13T00:36:18;34.67;;;22.13;;
52057;SDS011;38063;53.210;6.504;2022-11-13T00:38:45;36.92;;;23.88;;
52057;SDS011;38063;53.210;6.504;2022-11-13T00:41:11;33.80;;;22.63;;
52057;SDS011;38063;53.210;6.504;2022-11-13T00:43:36;34.85;;;22.25;;
52057;SDS011;38063;53.210;6.504;2022-11-13T00:46:02;41.22;;;25.77;;
52057;SDS011;38063;53.210;6.504;2022-11-13T00:48:28;38.95;;;22.60;;
52057;SDS011;38063;53.210;6.504;2022-11-13T00:50:53;40.45;;;24.40;;
52057;SDS011;38063;53.210;6.504;2022-11-13T00:53:20;38.42;;;23.98;;
52057;SDS011;38063;53.210;6.504;2022-11-13T00:55:45;34.67;;;23.48;;
52057;SDS011;38063;53.210;6.504;2022-11-13T00:58:11;37.75;;;24.88;;
52057;SDS011;38063;53.210;6.504;2022-11-13T01:00:38;35.88;;;23.20;;
52057;SDS011;38063;53.210;6.504;2022-11-13T01:03:04;36.17;;;23.40;;
52057;SDS011;38063;53.210;6.504;2022-11-13T01:05:32;38.38;;;25.00;;
52057;SDS011;38063;53.210;6.504;2022-11-13T01:08:04;35.30;;;23.77;;
52057;SDS011;38063;53.210;6.504;2022-11-13T01:10:30;36.97;;;23.88;;
52057;SDS011;38063;53.210;6.504;2022-11-13T01:12:56;37.33;;;24.35;;
52057;SDS011;38063;53.210;6.504;2022-11-13T01:15:22;36.15;;;23.40;;
52057;SDS011;38063;53.210;6.504;2022-11-13T01:17:47;40.95;;;23.40;;
52057;SDS011;38063;53.210;6.504;2022-11-13T01:20:13;36.30;;;23.33;;
52057;SDS011;38063;53.210;6.504;2022-11-13T01:22:39;41.22;;;24.30;;
52057;SDS011;38063;53.210;6.504;2022-11-13T01:25:05;37.90;;;23.55;;
52057;SDS011;38063;53.210;6.504;2022-11-13T01:27:31;36.75;;;23.52;;
52057;SDS011;38063;53.210;6.504;2022-11-13T01:30:00;39.22;;;24.00;;
52057;SDS011;38063;53.210;6.504;2022-11-13T01:32:25;38.50;;;25.05;;
52057;SDS011;38063;53.210;6.504;2022-11-13T01:34:51;36.70;;;24.05;;
52057;SDS011;38063;53.210;6.504;2022-11-13T01:37:17;37.47;;;24.85;;
52057;SDS011;38063;53.210;6.504;2022-11-13T01:39:42;40.30;;;25.02;;
52057;SDS011;38063;53.210;6.504;2022-11-13T01:42:08;43.60;;;26.30;;
52057;SDS011;38063;53.210;6.504;2022-11-13T01:44:47;47.17;;;28.52;;
52057;SDS011;38063;53.210;6.504;2022-11-13T01:47:15;44.15;;;28.10;;
52057;SDS011;38063;53.210;6.504;2022-11-13T01:49:42;48.67;;;29.27;;
52057;SDS011;38063;53.210;6.504;2022-11-13T01:52:10;51.67;;;30.05;;
52057;SDS011;38063;53.210;6.504;2022-11-13T01:54:41;52.25;;;31.25;;
52057;SDS011;38063;53.210;6.504;2022-11-13T01:57:11;52.08;;;31.65;;
52057;SDS011;38063;53.210;6.504;2022-11-13T01:59:39;43.92;;;28.42;;
52057;SDS011;38063;53.210;6.504;2022-11-13T02:02:08;47.95;;;29.75;;
52057;SDS011;38063;53.210;6.504;2022-11-13T02:04:34;42.00;;;28.83;;
52057;SDS011;38063;53.210;6.504;2022-11-13T02:07:06;42.92;;;26.90;;
52057;SDS011;38063;53.210;6.504;2022-11-13T02:09:41;38.53;;;25.65;;
52057;SDS011;38063;53.210;6.504;2022-11-13T02:12:12;40.33;;;26.10;;
52057;SDS011;38063;53.210;6.504;2022-11-13T02:14:40;41.38;;;25.38;;
52057;SDS011;38063;53.210;6.504;2022-11-13T02:17:10;39.97;;;25.30;;
52057;SDS011;38063;53.210;6.504;2022-11-13T02:19:41;41.35;;;24.95;;
52057;SDS011;38063;53.210;6.504;2022-11-13T02:24:58;36.58;;;23.63;;
52057;SDS011;38063;53.210;6.504;2022-11-13T02:27:30;35.42;;;23.40;;
52057;SDS011;38063;53.210;6.504;2022-11-13T02:29:57;39.08;;;25.45;;
52057;SDS011;38063;53.210;6.504;2022-11-13T02:32:22;42.45;;;25.92;;
52057;SDS011;38063;53.210;6.504;2022-11-13T02:34:48;37.33;;;24.65;;
52057;SDS011;38063;53.210;6.504;2022-11-13T02:37:14;36.15;;;24.67;;
52057;SDS011;38063;53.210;6.504;2022-11-13T02:39:39;39.13;;;24.35;;
52057;SDS011;38063;53.210;6.504;2022-11-13T02:42:05;38.88;;;24.63;;
52057;SDS011;38063;53.210;6.504;2022-11-13T02:44:31;33.97;;;23.77;;
52057;SDS011;38063;53.210;6.504;2022-11-13T02:46:56;34.80;;;23.40;;
52057;SDS011;38063;53.210;6.504;2022-11-13T02:49:22;37.95;;;23.45;;
52057;SDS011;38063;53.210;6.504;2022-11-13T02:51:48;36.65;;;22.75;;
52057;SDS011;38063;53.210;6.504;2022-11-13T02:54:13;33.65;;;23.27;;
52057;SDS011;38063;53.210;6.504;2022-11-13T02:56:39;37.17;;;22.23;;
52057;SDS011;38063;53.210;6.504;2022-11-13T02:59:04;35.25;;;23.25;;
52057;SDS011;38063;53.210;6.504;2022-11-13T03:01:30;33.92;;;20.60;;
52057;SDS011;38063;53.210;6.504;2022-11-13T03:03:56;32.88;;;22.13;;
52057;SDS011;38063;53.210;6.504;2022-11-13T03:06:21;32.65;;;21.02;;
52057;SDS011;38063;53.210;6.504;2022-11-13T03:08:47;33.90;;;19.95;;
52057;SDS011;38063;53.210;6.504;2022-11-13T03:11:12;31.30;;;20.15;;
52057;SDS011;38063;53.210;6.504;2022-11-13T03:13:38;34.58;;;20.80;;
52057;SDS011;38063;53.210;6.504;2022-11-13T03:16:06;34.75;;;19.80;;
52057;SDS011;38063;53.210;6.504;2022-11-13T03:18:39;28.15;;;19.30;;
52057;SDS011;38063;53.210;6.504;2022-11-13T03:21:09;29.38;;;17.77;;
52057;SDS011;38063;53.210;6.504;2022-11-13T03:23:39;27.67;;;17.63;;
52057;SDS011;38063;53.210;6.504;2022-11-13T03:26:07;26.08;;;17.40;;
52057;SDS011;38063;53.210;6.504;2022-11-13T03:28:34;25.92;;;17.58;;
52057;SDS011;38063;53.210;6.504;2022-11-13T03:31:00;26.17;;;18.00;;
52057;SDS011;38063;53.210;6.504;2022-11-13T03:33:26;27.98;;;18.23;;
52057;SDS011;38063;53.210;6.504;2022-11-13T03:35:52;28.63;;;18.70;;
52057;SDS011;38063;53.210;6.504;2022-11-13T03:38:17;28.00;;;18.05;;
52057;SDS011;38063;53.210;6.504;2022-11-13T03:40:43;29.10;;;18.23;;
52057;SDS011;38063;53.210;6.504;2022-11-13T03:43:08;25.05;;;17.55;;
52057;SDS011;38063;53.210;6.504;2022-11-13T03:45:34;28.45;;;18.13;;
52057;SDS011;38063;53.210;6.504;2022-11-13T03:48:00;29.08;;;18.08;;
52057;SDS011;38063;53.210;6.504;2022-11-13T03:50:25;25.13;;;17.20;;
52057;SDS011;38063;53.210;6.504;2022-11-13T03:52:51;28.50;;;17.30;;
52057;SDS011;38063;53.210;6.504;2022-11-13T03:55:17;27.27;;;17.95;;
52057;SDS011;38063;53.210;6.504;2022-11-13T03:57:43;27.48;;;17.92;;
52057;SDS011;38063;53.210;6.504;2022-11-13T04:00:08;32.65;;;18.17;;
52057;SDS011;38063;53.210;6.504;2022-11-13T04:02:35;26.45;;;17.55;;
52057;SDS011;38063;53.210;6.504;2022-11-13T04:05:00;25.17;;;17.58;;
52057;SDS011;38063;53.210;6.504;2022-11-13T04:07:26;28.00;;;17.42;;
52057;SDS011;38063;53.210;6.504;2022-11-13T04:09:52;28.50;;;17.23;;
52057;SDS011;38063;53.210;6.504;2022-11-13T04:12:17;27.23;;;18.35;;
52057;SDS011;38063;53.210;6.504;2022-11-13T04:14:43;25.08;;;17.08;;
52057;SDS011;38063;53.210;6.504;2022-11-13T04:17:08;26.10;;;17.38;;
52057;SDS011;38063;53.210;6.504;2022-11-13T04:19:34;26.38;;;16.75;;
52057;SDS011;38063;53.210;6.504;2022-11-13T04:22:00;25.75;;;16.35;;
52057;SDS011;38063;53.210;6.504;2022-11-13T04:24:25;22.95;;;16.77;;
52057;SDS011;38063;53.210;6.504;2022-11-13T04:26:51;26.98;;;17.95;;
52057;SDS011;38063;53.210;6.504;2022-11-13T04:29:16;25.60;;;17.55;;
52057;SDS011;38063;53.210;6.504;2022-11-13T04:31:42;25.83;;;17.45;;
52057;SDS011;38063;53.210;6.504;2022-11-13T04:34:08;25.42;;;16.35;;
52057;SDS011;38063;53.210;6.504;2022-11-13T04:36:33;26.08;;;16.80;;
52057;SDS011;38063;53.210;6.504;2022-11-13T04:38:59;23.13;;;16.02;;
52057;SDS011;38063;53.210;6.504;2022-11-13T04:41:24;24.77;;;16.63;;
52057;SDS011;38063;53.210;6.504;2022-11-13T04:44:09;24.60;;;16.08;;
52057;SDS011;38063;53.210;6.504;2022-11-13T04:46:35;26.65;;;16.33;;
52057;SDS011;38063;53.210;6.504;2022-11-13T04:49:00;22.13;;;16.48;;
52057;SDS011;38063;53.210;6.504;2022-11-13T04:51:26;24.80;;;16.08;;
52057;SDS011;38063;53.210;6.504;2022-11-13T04:53:51;25.02;;;16.67;;
52057;SDS011;38063;53.210;6.504;2022-11-13T04:56:17;23.90;;;16.77;;
52057;SDS011;38063;53.210;6.504;2022-11-13T04:58:42;25.98;;;16.33;;
52057;SDS011;38063;53.210;6.504;2022-11-13T05:01:08;25.15;;;16.35;;
52057;SDS011;38063;53.210;6.504;2022-11-13T05:03:34;24.63;;;16.15;;
52057;SDS011;38063;53.210;6.504;2022-11-13T05:06:00;22.40;;;15.93;;
52057;SDS011;38063;53.210;6.504;2022-11-13T05:08:30;24.25;;;16.08;;
52057;SDS011;38063;53.210;6.504;2022-11-13T05:10:56;24.25;;;16.88;;
52057;SDS011;38063;53.210;6.504;2022-11-13T05:13:21;28.25;;;17.08;;
52057;SDS011;38063;53.210;6.504;2022-11-13T05:15:47;23.88;;;15.80;;
52057;SDS011;38063;53.210;6.504;2022-11-13T05:18:13;24.60;;;16.30;;
52057;SDS011;38063;53.210;6.504;2022-11-13T05:20:38;26.67;;;16.15;;
52057;SDS011;38063;53.210;6.504;2022-11-13T05:23:04;22.35;;;15.50;;
52057;SDS011;38063;53.210;6.504;2022-11-13T05:25:30;25.45;;;15.30;;
52057;SDS011;38063;53.210;6.504;2022-11-13T05:27:56;21.67;;;15.23;;
52057;SDS011;38063;53.210;6.504;2022-11-13T05:30:22;24.90;;;14.93;;
52057;SDS011;38063;53.210;6.504;2022-11-13T05:32:48;23.50;;;14.90;;
52057;SDS011;38063;53.210;6.504;2022-11-13T05:35:15;21.90;;;15.48;;
52057;SDS011;38063;53.210;6.504;2022-11-13T05:37:41;21.45;;;14.60;;
52057;SDS011;38063;53.210;6.504;2022-11-13T05:40:06;21.92;;;14.63;;
52057;SDS011;38063;53.210;6.504;2022-11-13T05:42:32;23.20;;;15.25;;
52057;SDS011;38063;53.210;6.504;2022-11-13T05:44:58;22.20;;;14.45;;
52057;SDS011;38063;53.210;6.504;2022-11-13T05:47:24;23.38;;;15.35;;
52057;SDS011;38063;53.210;6.504;2022-11-13T05:49:49;25.00;;;16.45;;
52057;SDS011;38063;53.210;6.504;2022-11-13T05:52:15;22.20;;;15.38;;
52057;SDS011;38063;53.210;6.504;2022-11-13T05:54:40;22.55;;;15.07;;
52057;SDS011;38063;53.210;6.504;2022-11-13T05:57:06;24.65;;;15.57;;
52057;SDS011;38063;53.210;6.504;2022-11-13T05:59:32;22.27;;;15.80;;
52057;SDS011;38063;53.210;6.504;2022-11-13T06:01:57;22.30;;;15.32;;
52057;SDS011;38063;53.210;6.504;2022-11-13T06:04:23;21.95;;;15.02;;
52057;SDS011;38063;53.210;6.504;2022-11-13T06:06:48;22.23;;;14.93;;
52057;SDS011;38063;53.210;6.504;2022-11-13T06:09:14;22.65;;;14.80;;
52057;SDS011;38063;53.210;6.504;2022-11-13T06:11:41;21.27;;;14.23;;
52057;SDS011;38063;53.210;6.504;2022-11-13T06:14:08;20.85;;;14.13;;
52057;SDS011;38063;53.210;6.504;2022-11-13T06:16:34;23.17;;;14.75;;
52057;SDS011;38063;53.210;6.504;2022-11-13T06:19:03;21.70;;;14.05;;
52057;SDS011;38063;53.210;6.504;2022-11-13T06:21:31;19.83;;;14.07;;
52057;SDS011;38063;53.210;6.504;2022-11-13T06:23:58;19.77;;;13.20;;
52057;SDS011;38063;53.210;6.504;2022-11-13T06:26:29;21.15;;;14.10;;
52057;SDS011;38063;53.210;6.504;2022-11-13T06:28:56;20.88;;;14.18;;
52057;SDS011;38063;53.210;6.504;2022-11-13T06:31:23;22.10;;;14.43;;
52057;SDS011;38063;53.210;6.504;2022-11-13T06:33:50;22.52;;;14.85;;
52057;SDS011;38063;53.210;6.504;2022-11-13T06:36:17;21.67;;;14.55;;
52057;SDS011;38063;53.210;6.504;2022-11-13T06:38:48;22.15;;;14.20;;
52057;SDS011;38063;53.210;6.504;2022-11-13T06:41:14;21.63;;;14.52;;
52057;SDS011;38063;53.210;6.504;2022-11-13T06:43:43;20.95;;;13.90;;
52057;SDS011;38063;53.210;6.504;2022-11-13T06:46:13;24.02;;;14.38;;
52057;SDS011;38063;53.210;6.504;2022-11-13T06:48:42;21.95;;;14.65;;
52057;SDS011;38063;53.210;6.504;2022-11-13T06:51:08;23.30;;;14.52;;
52057;SDS011;38063;53.210;6.504;2022-11-13T06:53:37;22.77;;;14.38;;
52057;SDS011;38063;53.210;6.504;2022-11-13T06:56:03;22.95;;;14.23;;
52057;SDS011;38063;53.210;6.504;2022-11-13T06:58:30;20.30;;;13.45;;
52057;SDS011;38063;53.210;6.504;2022-11-13T07:00:56;23.13;;;14.70;;
52057;SDS011;38063;53.210;6.504;2022-11-13T07:03:24;22.83;;;14.10;;
52057;SDS011;38063;53.210;6.504;2022-11-13T07:05:50;21.95;;;14.77;;
52057;SDS011;38063;53.210;6.504;2022-11-13T07:08:17;21.70;;;14.43;;
52057;SDS011;38063;53.210;6.504;2022-11-13T07:10:43;20.70;;;13.68;;
52057;SDS011;38063;53.210;6.504;2022-11-13T07:13:17;22.63;;;15.25;;
52057;SDS011;38063;53.210;6.504;2022-11-13T07:15:43;21.42;;;13.65;;
52057;SDS011;38063;53.210;6.504;2022-11-13T07:18:08;21.85;;;14.60;;
52057;SDS011;38063;53.210;6.504;2022-11-13T07:20:34;20.67;;;13.80;;
52057;SDS011;38063;53.210;6.504;2022-11-13T07:23:00;18.52;;;12.82;;
52057;SDS011;38063;53.210;6.504;2022-11-13T07:25:27;20.85;;;13.63;;
52057;SDS011;38063;53.210;6.504;2022-11-13T07:27:53;21.92;;;13.68;;
52057;SDS011;38063;53.210;6.504;2022-11-13T07:30:19;24.05;;;14.65;;
52057;SDS011;38063;53.210;6.504;2022-11-13T07:32:45;21.98;;;13.95;;
52057;SDS011;38063;53.210;6.504;2022-11-13T07:35:10;21.05;;;14.35;;
52057;SDS011;38063;53.210;6.504;2022-11-13T07:37:36;22.52;;;15.05;;
52057;SDS011;38063;53.210;6.504;2022-11-13T07:40:02;20.48;;;13.50;;
52057;SDS011;38063;53.210;6.504;2022-11-13T07:42:29;22.98;;;14.60;;
52057;SDS011;38063;53.210;6.504;2022-11-13T07:44:55;21.38;;;14.55;;
52057;SDS011;38063;53.210;6.504;2022-11-13T07:47:21;20.77;;;13.57;;
52057;SDS011;38063;53.210;6.504;2022-11-13T07:49:47;20.75;;;13.32;;
52057;SDS011;38063;53.210;6.504;2022-11-13T07:52:13;18.42;;;13.05;;
52057;SDS011;38063;53.210;6.504;2022-11-13T07:54:39;19.27;;;13.20;;
52057;SDS011;38063;53.210;6.504;2022-11-13T07:57:04;19.27;;;13.95;;
52057;SDS011;38063;53.210;6.504;2022-11-13T07:59:30;20.67;;;14.50;;
52057;SDS011;38063;53.210;6.504;2022-11-13T08:01:56;23.73;;;14.43;;
52057;SDS011;38063;53.210;6.504;2022-11-13T08:04:21;20.33;;;13.30;;
52057;SDS011;38063;53.210;6.504;2022-11-13T08:06:47;18.95;;;14.00;;
52057;SDS011;38063;53.210;6.504;2022-11-13T08:09:12;23.05;;;13.98;;
52057;SDS011;38063;53.210;6.504;2022-11-13T08:11:38;19.50;;;12.98;;
52057;SDS011;38063;53.210;6.504;2022-11-13T08:14:04;20.80;;;13.98;;
52057;SDS011;38063;53.210;6.504;2022-11-13T08:16:29;22.98;;;14.68;;
52057;SDS011;38063;53.210;6.504;2022-11-13T08:18:55;20.58;;;14.02;;
52057;SDS011;38063;53.210;6.504;2022-11-13T08:21:21;22.30;;;13.90;;
52057;SDS011;38063;53.210;6.504;2022-11-13T08:23:47;24.67;;;14.20;;
52057;SDS011;38063;53.210;6.504;2022-11-13T08:26:14;20.88;;;13.77;;
52057;SDS011;38063;53.210;6.504;2022-11-13T08:28:43;18.27;;;13.43;;
52057;SDS011;38063;53.210;6.504;2022-11-13T08:31:10;22.65;;;13.82;;
52057;SDS011;38063;53.210;6.504;2022-11-13T08:33:37;15.68;;;12.23;;
52057;SDS011;38063;53.210;6.504;2022-11-13T08:36:02;20.30;;;12.80;;
52057;SDS011;38063;53.210;6.504;2022-11-13T08:38:28;20.98;;;13.23;;
52057;SDS011;38063;53.210;6.504;2022-11-13T08:40:58;20.58;;;13.82;;
52057;SDS011;38063;53.210;6.504;2022-11-13T08:43:24;20.02;;;13.45;;
52057;SDS011;38063;53.210;6.504;2022-11-13T08:45:50;18.83;;;12.98;;
52057;SDS011;38063;53.210;6.504;2022-11-13T08:48:16;17.20;;;12.18;;
52057;SDS011;38063;53.210;6.504;2022-11-13T08:50:42;20.45;;;13.07;;
52057;SDS011;38063;53.210;6.504;2022-11-13T08:53:09;17.05;;;13.10;;
52057;SDS011;38063;53.210;6.504;2022-11-13T08:55:35;18.08;;;12.25;;
52057;SDS011;38063;53.210;6.504;2022-11-13T08:58:01;17.33;;;11.98;;
52057;SDS011;38063;53.210;6.504;2022-11-13T09:00:28;18.67;;;12.63;;
52057;SDS011;38063;53.210;6.504;2022-11-13T09:02:55;16.23;;;12.95;;
52057;SDS011;38063;53.210;6.504;2022-11-13T09:05:22;20.20;;;12.75;;
52057;SDS011;38063;53.210;6.504;2022-11-13T09:07:48;17.00;;;12.63;;
52057;SDS011;38063;53.210;6.504;2022-11-13T09:10:15;17.73;;;11.98;;
52057;SDS011;38063;53.210;6.504;2022-11-13T09:12:41;16.83;;;11.90;;
52057;SDS011;38063;53.210;6.504;2022-11-13T09:15:07;15.52;;;12.13;;
52057;SDS011;38063;53.210;6.504;2022-11-13T09:17:33;19.33;;;12.98;;
52057;SDS011;38063;53.210;6.504;2022-11-13T09:19:59;18.40;;;12.70;;
52057;SDS011;38063;53.210;6.504;2022-11-13T09:22:24;21.70;;;12.57;;
52057;SDS011;38063;53.210;6.504;2022-11-13T09:24:50;17.40;;;11.68;;
52057;SDS011;38063;53.210;6.504;2022-11-13T09:27:15;17.10;;;11.93;;
52057;SDS011;38063;53.210;6.504;2022-11-13T09:29:42;17.02;;;11.70;;
52057;SDS011;38063;53.210;6.504;2022-11-13T09:32:07;20.23;;;12.48;;
52057;SDS011;38063;53.210;6.504;2022-11-13T09:34:33;17.90;;;12.85;;
52057;SDS011;38063;53.210;6.504;2022-11-13T09:36:59;17.75;;;12.40;;
52057;SDS011;38063;53.210;6.504;2022-11-13T09:39:25;17.52;;;12.32;;
52057;SDS011;38063;53.210;6.504;2022-11-13T09:41:58;18.42;;;11.68;;
52057;SDS011;38063;53.210;6.504;2022-11-13T09:44:31;18.65;;;11.85;;
52057;SDS011;38063;53.210;6.504;2022-11-13T09:47:08;16.98;;;11.52;;
52057;SDS011;38063;53.210;6.504;2022-11-13T09:50:10;17.27;;;12.40;;
52057;SDS011;38063;53.210;6.504;2022-11-13T09:52:41;17.65;;;12.50;;
52057;SDS011;38063;53.210;6.504;2022-11-13T09:55:12;13.95;;;11.23;;
52057;SDS011;38063;53.210;6.504;2022-11-13T10:00:31;13.85;;;10.50;;
52057;SDS011;38063;53.210;6.504;2022-11-13T10:03:12;17.42;;;11.10;;
52057;SDS011;38063;53.210;6.504;2022-11-13T10:06:06;18.00;;;10.82;;
52057;SDS011;38063;53.210;6.504;2022-11-13T10:08:52;14.45;;;10.95;;
52057;SDS011;38063;53.210;6.504;2022-11-13T10:11:41;16.30;;;10.00;;
52057;SDS011;38063;53.210;6.504;2022-11-13T10:14:58;14.23;;;10.13;;
52057;SDS011;38063;53.210;6.504;2022-11-13T10:17:09;12.50;;;10.10;;
52057;SDS011;38063;53.210;6.504;2022-11-13T10:22:18;14.57;;;10.23;;
52057;SDS011;38063;53.210;6.504;2022-11-13T10:24:52;16.27;;;9.52;;
52057;SDS011;38063;53.210;6.504;2022-11-13T10:27:24;14.00;;;9.88;;
52057;SDS011;38063;53.210;6.504;2022-11-13T10:29:49;14.10;;;10.00;;
52057;SDS011;38063;53.210;6.504;2022-11-13T10:32:25;14.05;;;9.35;;
52057;SDS011;38063;53.210;6.504;2022-11-13T10:37:47;13.10;;;9.50;;
52057;SDS011;38063;53.210;6.504;2022-11-13T10:40:39;13.20;;;8.73;;
52057;SDS011;38063;53.210;6.504;2022-11-13T10:43:06;15.27;;;9.85;;
52057;SDS011;38063;53.210;6.504;2022-11-13T10:45:52;14.60;;;9.50;;
52057;SDS011;38063;53.210;6.504;2022-11-13T10:48:33;15.93;;;10.23;;
52057;SDS011;38063;53.210;6.504;2022-11-13T10:51:17;16.95;;;10.77;;
52057;SDS011;38063;53.210;6.504;2022-11-13T10:53:52;13.10;;;9.23;;
52057;SDS011;38063;53.210;6.504;2022-11-13T11:01:36;13.82;;;9.52;;
52057;SDS011;38063;53.210;6.504;2022-11-13T11:04:04;13.25;;;9.20;;
52057;SDS011;38063;53.210;6.504;2022-11-13T11:06:45;16.38;;;10.45;;
52057;SDS011;38063;53.210;6.504;2022-11-13T11:17:16;14.82;;;10.07;;
52057;SDS011;38063;53.210;6.504;2022-11-13T11:19:46;16.13;;;10.63;;
52057;SDS011;38063;53.210;6.504;2022-11-13T11:22:21;15.00;;;11.23;;
52057;SDS011;38063;53.210;6.504;2022-11-13T11:24:57;14.38;;;9.93;;
52057;SDS011;38063;53.210;6.504;2022-11-13T11:27:38;13.50;;;10.00;;
52057;SDS011;38063;53.210;6.504;2022-11-13T11:30:23;13.20;;;10.10;;
52057;SDS011;38063;53.210;6.504;2022-11-13T11:32:59;14.75;;;10.50;;
52057;SDS011;38063;53.210;6.504;2022-11-13T11:35:30;13.52;;;10.27;;
52057;SDS011;38063;53.210;6.504;2022-11-13T11:37:59;14.00;;;10.52;;
52057;SDS011;38063;53.210;6.504;2022-11-13T11:40:35;14.82;;;11.63;;
52057;SDS011;38063;53.210;6.504;2022-11-13T11:43:10;16.38;;;10.52;;
52057;SDS011;38063;53.210;6.504;2022-11-13T11:45:44;14.75;;;9.85;;
52057;SDS011;38063;53.210;6.504;2022-11-13T11:48:11;15.23;;;9.82;;
52057;SDS011;38063;53.210;6.504;2022-11-13T11:50:55;12.60;;;9.30;;
52057;SDS011;38063;53.210;6.504;2022-11-13T11:53:29;12.70;;;9.05;;
52057;SDS011;38063;53.210;6.504;2022-11-13T11:56:47;12.15;;;9.10;;
52057;SDS011;38063;53.210;6.504;2022-11-13T11:59:12;11.13;;;8.80;;
52057;SDS011;38063;53.210;6.504;2022-11-13T12:07:31;12.82;;;8.98;;
52057;SDS011;38063;53.210;6.504;2022-11-13T12:24:05;10.52;;;8.05;;
52057;SDS011;38063;53.210;6.504;2022-11-13T12:26:46;11.88;;;8.55;;
52057;SDS011;38063;53.210;6.504;2022-11-13T12:34:51;10.70;;;8.48;;
52057;SDS011;38063;53.210;6.504;2022-11-13T12:37:25;11.88;;;8.70;;
52057;SDS011;38063;53.210;6.504;2022-11-13T12:40:04;11.65;;;8.32;;
52057;SDS011;38063;53.210;6.504;2022-11-13T12:42:43;12.57;;;8.50;;
52057;SDS011;38063;53.210;6.504;2022-11-13T12:45:23;12.20;;;8.30;;
52057;SDS011;38063;53.210;6.504;2022-11-13T12:50:42;11.90;;;8.50;;
52057;SDS011;38063;53.210;6.504;2022-11-13T12:53:09;12.30;;;8.60;;
52057;SDS011;38063;53.210;6.504;2022-11-13T12:55:37;10.60;;;7.63;;
52057;SDS011;38063;53.210;6.504;2022-11-13T12:58:08;13.02;;;8.80;;
52057;SDS011;38063;53.210;6.504;2022-11-13T13:01:18;11.55;;;7.93;;
52057;SDS011;38063;53.210;6.504;2022-11-13T13:17:04;14.55;;;9.88;;
52057;SDS011;38063;53.210;6.504;2022-11-13T13:20:00;13.48;;;10.10;;
52057;SDS011;38063;53.210;6.504;2022-11-13T13:22:30;16.15;;;9.40;;
52057;SDS011;38063;53.210;6.504;2022-11-13T13:25:21;15.07;;;9.30;;
52057;SDS011;38063;53.210;6.504;2022-11-13T13:27:54;13.32;;;9.52;;
52057;SDS011;38063;53.210;6.504;2022-11-13T13:39:10;12.15;;;9.20;;
52057;SDS011;38063;53.210;6.504;2022-11-13T13:44:51;12.80;;;9.35;;
52057;SDS011;38063;53.210;6.504;2022-11-13T13:47:38;13.02;;;8.57;;
52057;SDS011;38063;53.210;6.504;2022-11-13T13:50:11;13.85;;;10.25;;
52057;SDS011;38063;53.210;6.504;2022-11-13T13:52:40;14.38;;;10.25;;
52057;SDS011;38063;53.210;6.504;2022-11-13T13:58:17;14.93;;;9.15;;
52057;SDS011;38063;53.210;6.504;2022-11-13T14:00:57;16.30;;;10.13;;
52057;SDS011;38063;53.210;6.504;2022-11-13T14:03:27;16.17;;;10.50;;
52057;SDS011;38063;53.210;6.504;2022-11-13T14:05:53;14.30;;;10.27;;
52057;SDS011;38063;53.210;6.504;2022-11-13T14:08:21;13.68;;;9.68;;
52057;SDS011;38063;53.210;6.504;2022-11-13T14:10:51;15.20;;;10.75;;
52057;SDS011;38063;53.210;6.504;2022-11-13T14:13:24;12.52;;;9.55;;
52057;SDS011;38063;53.210;6.504;2022-11-13T14:16:01;13.80;;;10.63;;
52057;SDS011;38063;53.210;6.504;2022-11-13T14:18:29;13.98;;;10.40;;
52057;SDS011;38063;53.210;6.504;2022-11-13T14:21:08;13.27;;;9.40;;
52057;SDS011;38063;53.210;6.504;2022-11-13T14:23:45;13.10;;;9.73;;
52057;SDS011;38063;53.210;6.504;2022-11-13T14:26:15;11.50;;;9.48;;
52057;SDS011;38063;53.210;6.504;2022-11-13T14:28:43;17.38;;;10.23;;
52057;SDS011;38063;53.210;6.504;2022-11-13T14:31:12;14.82;;;10.93;;
52057;SDS011;38063;53.210;6.504;2022-11-13T14:33:43;15.32;;;10.68;;
52057;SDS011;38063;53.210;6.504;2022-11-13T14:36:11;15.50;;;11.32;;
52057;SDS011;38063;53.210;6.504;2022-11-13T14:38:43;16.38;;;11.45;;
52057;SDS011;38063;53.210;6.504;2022-11-13T14:41:54;15.02;;;10.57;;
52057;SDS011;38063;53.210;6.504;2022-11-13T14:44:00;14.43;;;10.32;;
52057;SDS011;38063;53.210;6.504;2022-11-13T14:46:28;14.38;;;10.77;;
52057;SDS011;38063;53.210;6.504;2022-11-13T14:48:59;16.33;;;12.07;;
52057;SDS011;38063;53.210;6.504;2022-11-13T14:51:32;14.77;;;10.38;;
52057;SDS011;38063;53.210;6.504;2022-11-13T14:53:59;17.38;;;10.80;;
52057;SDS011;38063;53.210;6.504;2022-11-13T14:56:33;14.27;;;10.52;;
52057;SDS011;38063;53.210;6.504;2022-11-13T14:59:07;12.65;;;10.00;;
52057;SDS011;38063;53.210;6.504;2022-11-13T15:01:35;14.27;;;10.90;;
52057;SDS011;38063;53.210;6.504;2022-11-13T15:04:01;16.77;;;11.57;;
52057;SDS011;38063;53.210;6.504;2022-11-13T15:06:32;16.50;;;10.73;;
52057;SDS011;38063;53.210;6.504;2022-11-13T15:09:00;19.48;;;11.68;;
52057;SDS011;38063;53.210;6.504;2022-11-13T15:11:26;14.73;;;11.32;;
52057;SDS011;38063;53.210;6.504;2022-11-13T15:13:52;16.13;;;10.95;;
52057;SDS011;38063;53.210;6.504;2022-11-13T15:16:21;15.98;;;11.63;;
52057;SDS011;38063;53.210;6.504;2022-11-13T15:19:02;16.92;;;12.25;;
52057;SDS011;38063;53.210;6.504;2022-11-13T15:21:31;16.00;;;11.55;;
52057;SDS011;38063;53.210;6.504;2022-11-13T15:23:57;15.50;;;11.20;;
52057;SDS011;38063;53.210;6.504;2022-11-13T15:26:25;15.35;;;10.57;;
52057;SDS011;38063;53.210;6.504;2022-11-13T15:28:51;16.77;;;11.20;;
52057;SDS011;38063;53.210;6.504;2022-11-13T15:33:55;16.60;;;11.77;;
52057;SDS011;38063;53.210;6.504;2022-11-13T15:36:21;15.65;;;11.52;;
52057;SDS011;38063;53.210;6.504;2022-11-13T15:38:46;17.08;;;11.00;;
52057;SDS011;38063;53.210;6.504;2022-11-13T15:41:13;13.85;;;10.90;;
52057;SDS011;38063;53.210;6.504;2022-11-13T15:43:44;17.55;;;11.25;;
52057;SDS011;38063;53.210;6.504;2022-11-13T15:46:13;18.20;;;11.02;;
52057;SDS011;38063;53.210;6.504;2022-11-13T15:48:41;14.85;;;11.38;;
52057;SDS011;38063;53.210;6.504;2022-11-13T15:51:11;15.68;;;10.98;;
52057;SDS011;38063;53.210;6.504;2022-11-13T15:53:48;14.88;;;10.73;;
52057;SDS011;38063;53.210;6.504;2022-11-13T15:56:18;16.23;;;10.98;;
52057;SDS011;38063;53.210;6.504;2022-11-13T15:58:44;15.30;;;10.95;;